createdAt,value
2023-03-17T00:00:11.451Z,10.55
2023-03-17T00:02:48.559Z,10.63
2023-03-17T00:05:38.048Z,10.67
2023-03-17T00:08:52.793Z,10.71
2023-03-17T00:11:31.199Z,10.74
2023-03-17T00:14:40.406Z,10.77
2023-03-17T00:17:40.653Z,10.80
2023-03-17T00:20:24.936Z,10.84
2023-03-17T00:23:17.387Z,10.87
2023-03-17T00:26:01.077Z,10.91
2023-03-17T00:28:32.882Z,10.93
2023-03-17T00:31:29.200Z,10.96
2023-03-17T00:34:01.632Z,10.97
2023-03-17T00:36:33.583Z,10.97
2023-03-17T00:39:03.010Z,10.97
2023-03-17T00:41:32.170Z,10.98
2023-03-17T00:44:21.511Z,10.98
2023-03-17T00:46:56.048Z,10.96
2023-03-17T00:49:27.951Z,10.95
2023-03-17T00:52:00.076Z,10.94
2023-03-17T00:54:52.558Z,10.94
2023-03-17T00:57:21.851Z,10.95
2023-03-17T01:01:09.603Z,10.97
2023-03-17T01:04:10.471Z,10.98
2023-03-17T01:06:45.689Z,10.99
2023-03-17T01:09:56.104Z,11.02
2023-03-17T01:12:41.641Z,11.02
2023-03-17T01:16:11.349Z,11.02
2023-03-17T01:18:43.841Z,11.02
2023-03-17T01:21:36.782Z,11.01
2023-03-17T01:25:08.888Z,11.00
2023-03-17T01:28:08.246Z,10.98
2023-03-17T01:30:46.435Z,10.94
2023-03-17T01:34:05.214Z,10.90
2023-03-17T01:36:54.633Z,10.84
2023-03-17T01:39:41.255Z,10.77
2023-03-17T01:42:57.954Z,10.71
2023-03-17T01:46:23.702Z,10.68
2023-03-17T01:49:53.243Z,10.64
2023-03-17T01:52:53.966Z,10.53
2023-03-17T01:56:22.724Z,10.44
2023-03-17T01:59:25.392Z,10.31
2023-03-17T02:02:54.351Z,10.21
2023-03-17T02:06:16.112Z,10.08
2023-03-17T02:09:45.307Z,9.98
2023-03-17T02:13:15.611Z,9.87
2023-03-17T02:16:46.148Z,9.79
2023-03-17T02:19:43.798Z,9.69
2023-03-17T02:22:18.937Z,9.60
2023-03-17T02:24:58.055Z,9.55
2023-03-17T02:28:04.432Z,9.49
2023-03-17T02:31:05.805Z,9.39
2023-03-17T02:34:34.550Z,9.27
2023-03-17T02:38:03.249Z,9.15
2023-03-17T02:41:11.164Z,9.05
2023-03-17T02:44:40.279Z,8.97
2023-03-17T02:47:21.743Z,8.89
2023-03-17T02:50:50.678Z,8.80
2023-03-17T02:54:19.332Z,8.72
2023-03-17T02:57:47.960Z,8.62
2023-03-17T03:01:02.291Z,8.49
2023-03-17T03:04:31.609Z,8.34
2023-03-17T03:07:53.025Z,8.22
2023-03-17T03:11:24.648Z,8.10
2023-03-17T03:14:45.137Z,7.96
2023-03-17T03:18:14.007Z,7.84
2023-03-17T03:21:26.577Z,7.71
2023-03-17T03:24:55.483Z,7.59
2023-03-17T03:28:24.366Z,7.46
2023-03-17T03:31:53.525Z,7.35
2023-03-17T03:35:21.030Z,7.25
2023-03-17T03:38:49.759Z,7.16
2023-03-17T03:42:17.546Z,7.08
2023-03-17T03:45:39.499Z,7.02
2023-03-17T03:48:57.299Z,6.96
2023-03-17T03:52:09.003Z,6.90
2023-03-17T03:55:37.877Z,6.86
2023-03-17T03:59:06.588Z,6.83
2023-03-17T04:02:35.288Z,6.81
2023-03-17T04:06:04.209Z,6.79
2023-03-17T04:09:31.799Z,6.76
2023-03-17T04:13:00.117Z,6.73
2023-03-17T04:16:29.176Z,6.68
2023-03-17T04:19:58.102Z,6.62
2023-03-17T04:23:27.687Z,6.55
2023-03-17T04:25:56.813Z,6.48
2023-03-17T04:29:25.460Z,6.47
2023-03-17T04:32:56.727Z,6.47
2023-03-17T04:36:25.738Z,6.44
2023-03-17T04:39:55.229Z,6.41
2023-03-17T04:43:10.438Z,6.37
2023-03-17T04:46:39.687Z,6.34
2023-03-17T04:50:01.899Z,6.29
2023-03-17T04:53:29.645Z,6.25
2023-03-17T04:56:53.252Z,6.19
2023-03-17T05:00:22.534Z,6.15
2023-03-17T05:03:52.451Z,6.12
2023-03-17T05:07:09.956Z,6.11
2023-03-17T05:10:17.782Z,6.07
2023-03-17T05:13:17.740Z,6.05
2023-03-17T05:16:48.219Z,6.02
2023-03-17T05:20:15.806Z,6.00
2023-03-17T05:23:55.023Z,5.96
2023-03-17T05:27:22.801Z,5.91
2023-03-17T05:30:44.965Z,5.87
2023-03-17T05:34:04.985Z,5.85
2023-03-17T05:37:34.095Z,5.83
2023-03-17T05:40:36.292Z,5.79
2023-03-17T05:44:01.660Z,5.77
2023-03-17T05:47:03.930Z,5.71
2023-03-17T05:50:05.948Z,5.65
2023-03-17T05:53:19.966Z,5.59
2023-03-17T05:56:30.167Z,5.56
2023-03-17T05:59:48.925Z,5.53
2023-03-17T06:03:18.193Z,5.51
2023-03-17T06:06:47.037Z,5.49
2023-03-17T06:10:17.897Z,5.48
2023-03-17T06:13:47.187Z,5.49
2023-03-17T06:17:16.317Z,5.50
2023-03-17T06:20:45.682Z,5.47
2023-03-17T06:24:14.797Z,5.45
2023-03-17T06:27:47.571Z,5.43
2023-03-17T06:31:07.415Z,5.41
2023-03-17T06:34:36.300Z,5.38
2023-03-17T06:38:05.241Z,5.34
2023-03-17T06:41:33.029Z,5.31
2023-03-17T06:44:54.996Z,5.28
2023-03-17T06:48:23.910Z,5.28
2023-03-17T06:51:52.792Z,5.27
2023-03-17T06:55:22.032Z,5.25
2023-03-17T06:58:50.846Z,5.22
2023-03-17T07:02:19.839Z,5.18
2023-03-17T07:05:49.169Z,5.16
2023-03-17T07:09:18.119Z,5.13
2023-03-17T07:12:38.245Z,5.11
2023-03-17T07:15:48.249Z,5.09
2023-03-17T07:19:18.161Z,5.06
2023-03-17T07:22:47.291Z,5.02
2023-03-17T07:26:16.628Z,4.98
2023-03-17T07:29:46.430Z,4.96
2023-03-17T07:33:15.605Z,4.93
2023-03-17T07:36:44.450Z,4.91
2023-03-17T07:40:13.979Z,4.90
2023-03-17T07:43:43.059Z,4.92
2023-03-17T07:47:14.643Z,4.89
2023-03-17T07:50:43.731Z,4.86
2023-03-17T07:54:14.986Z,4.83
2023-03-17T07:57:44.477Z,4.79
2023-03-17T08:01:13.374Z,4.76
2023-03-17T08:04:42.199Z,4.73
2023-03-17T08:08:10.464Z,4.70
2023-03-17T08:11:14.242Z,4.68
2023-03-17T08:14:46.544Z,4.63
2023-03-17T08:18:15.456Z,4.59
2023-03-17T08:21:53.418Z,4.57
2023-03-17T08:25:22.473Z,4.53
2023-03-17T08:28:45.044Z,4.49
2023-03-17T08:32:14.083Z,4.43
2023-03-17T08:35:43.137Z,4.37
2023-03-17T08:39:11.829Z,4.32
2023-03-17T08:42:40.490Z,4.28
2023-03-17T08:46:09.196Z,4.24
2023-03-17T08:49:37.919Z,4.22
2023-03-17T08:53:06.568Z,4.19
2023-03-17T08:56:28.377Z,4.17
2023-03-17T08:59:57.109Z,4.14
2023-03-17T09:03:26.268Z,4.11
2023-03-17T09:07:04.797Z,4.08
2023-03-17T09:10:34.581Z,4.05
2023-03-17T09:14:04.125Z,4.02
2023-03-17T09:17:33.089Z,3.99
2023-03-17T09:21:01.826Z,3.98
2023-03-17T09:24:31.373Z,3.98
2023-03-17T09:28:00.057Z,3.98
2023-03-17T09:31:32.370Z,4.00
2023-03-17T09:35:01.632Z,4.01
2023-03-17T09:38:10.595Z,4.00
2023-03-17T09:41:42.311Z,3.97
2023-03-17T09:45:18.376Z,3.99
2023-03-17T09:48:29.935Z,3.97
2023-03-17T09:51:55.160Z,3.95
2023-03-17T09:55:28.431Z,3.92
2023-03-17T09:58:58.200Z,3.90
2023-03-17T10:02:27.641Z,3.89
2023-03-17T10:06:19.122Z,3.88
2023-03-17T10:10:38.240Z,3.87
2023-03-17T10:13:40.621Z,3.86
2023-03-17T10:16:15.818Z,3.85
2023-03-17T10:19:31.390Z,3.83
2023-03-17T10:22:11.431Z,3.84
2023-03-17T10:24:44.572Z,3.83
2023-03-17T10:27:16.865Z,3.80
2023-03-17T10:30:16.233Z,3.78
2023-03-17T10:33:06.397Z,3.77
2023-03-17T10:36:19.085Z,3.76
2023-03-17T10:39:33.637Z,3.76
2023-03-17T10:42:15.410Z,3.73
2023-03-17T10:45:21.928Z,3.70
2023-03-17T10:47:57.245Z,3.68
2023-03-17T10:50:42.564Z,3.67
2023-03-17T10:53:24.576Z,3.63
2023-03-17T10:55:57.758Z,3.61
2023-03-17T10:58:37.999Z,3.59
2023-03-17T11:01:21.198Z,3.58
2023-03-17T11:04:16.163Z,3.56
2023-03-17T11:07:18.853Z,3.55
2023-03-17T11:10:19.890Z,3.54
2023-03-17T11:13:17.339Z,3.53
2023-03-17T11:16:14.697Z,3.51
2023-03-17T11:19:23.871Z,3.48
2023-03-17T11:22:17.422Z,3.46
2023-03-17T11:25:26.468Z,3.43
2023-03-17T11:28:55.014Z,3.39
2023-03-17T11:31:55.135Z,3.37
2023-03-17T11:35:03.344Z,3.32
2023-03-17T11:38:06.971Z,3.27
2023-03-17T11:41:25.621Z,3.23
2023-03-17T11:45:00.045Z,3.21
2023-03-17T11:48:23.160Z,3.17
2023-03-17T11:51:22.258Z,3.12
2023-03-17T11:54:34.486Z,3.07
2023-03-17T11:57:44.528Z,3.03
2023-03-17T12:00:28.797Z,3.00
2023-03-17T12:03:43.200Z,2.97
2023-03-17T12:06:34.033Z,2.93
2023-03-17T12:10:15.111Z,2.91
2023-03-17T12:13:16.084Z,2.91
2023-03-17T12:15:55.400Z,2.87
2023-03-17T12:18:54.081Z,2.84
2023-03-17T12:21:47.330Z,2.78
2023-03-17T12:24:37.074Z,2.75
2023-03-17T12:27:29.451Z,2.75
2023-03-17T12:30:56.579Z,2.76
2023-03-17T12:34:24.013Z,2.77
2023-03-17T12:36:54.348Z,2.81
2023-03-17T12:39:38.539Z,2.83
2023-03-17T12:42:49.056Z,2.84
2023-03-17T12:45:50.522Z,2.84
2023-03-17T12:49:07.766Z,2.82
2023-03-17T12:52:32.066Z,2.78
2023-03-17T12:55:50.988Z,2.74
2023-03-17T12:59:10.059Z,2.68
2023-03-17T13:02:59.797Z,2.64
2023-03-17T13:06:25.245Z,2.61
2023-03-17T13:09:51.941Z,2.57
2023-03-17T13:13:19.662Z,2.56
2023-03-17T13:16:50.499Z,2.57
2023-03-17T13:20:13.372Z,2.60
2023-03-17T13:23:31.143Z,2.62
2023-03-17T13:26:35.506Z,2.64
2023-03-17T13:29:46.138Z,2.68
2023-03-17T13:32:37.706Z,2.75
2023-03-17T13:35:17.796Z,2.81
2023-03-17T13:39:20.921Z,2.84
2023-03-17T13:42:39.924Z,2.84
2023-03-17T13:46:14.812Z,2.80
2023-03-17T13:49:49.968Z,2.75
2023-03-17T13:53:04.512Z,2.70
2023-03-17T13:55:42.870Z,2.68
2023-03-17T13:59:14.380Z,2.66
2023-03-17T14:02:56.563Z,2.63
2023-03-17T14:06:28.090Z,2.61
2023-03-17T14:10:10.744Z,2.59
2023-03-17T14:13:07.189Z,2.58
2023-03-17T14:15:57.355Z,2.58
2023-03-17T14:19:07.428Z,2.60
2023-03-17T14:21:39.974Z,2.58
2023-03-17T14:24:28.747Z,2.56
2023-03-17T14:27:00.365Z,2.55
2023-03-17T14:29:43.529Z,2.54
2023-03-17T14:32:22.324Z,2.54
2023-03-17T14:35:03.391Z,2.53
2023-03-17T14:37:59.028Z,2.54
2023-03-17T14:40:58.674Z,2.59
2023-03-17T14:44:10.679Z,2.64
2023-03-17T14:46:41.346Z,2.70
2023-03-17T14:49:26.612Z,2.73
2023-03-17T14:52:50.323Z,2.77
2023-03-17T14:56:01.974Z,2.81
2023-03-17T14:58:44.738Z,2.80
2023-03-17T15:02:14.734Z,2.77
2023-03-17T15:05:46.390Z,2.75
2023-03-17T15:09:04.077Z,2.72
2023-03-17T15:12:45.612Z,2.72
2023-03-17T15:16:05.068Z,2.73
2023-03-17T15:19:30.276Z,2.75
2023-03-17T15:23:02.245Z,2.74
2023-03-17T15:25:44.532Z,2.74
2023-03-17T15:29:06.488Z,2.74
2023-03-17T15:31:55.774Z,2.74
2023-03-17T15:34:57.510Z,2.76
2023-03-17T15:38:18.705Z,2.78
2023-03-17T15:41:26.164Z,2.77
2023-03-17T15:44:43.845Z,2.76
2023-03-17T15:47:26.906Z,2.77
2023-03-17T15:50:15.303Z,2.81
2023-03-17T15:52:59.644Z,2.86
2023-03-17T15:55:32.012Z,2.91
2023-03-17T15:58:15.716Z,2.96
2023-03-17T16:00:45.559Z,3.03
2023-03-17T16:03:48.026Z,3.10
2023-03-17T16:06:20.182Z,3.21
2023-03-17T16:08:50.217Z,3.30
2023-03-17T16:11:26.520Z,3.39
2023-03-17T16:14:05.495Z,3.44
2023-03-17T16:16:49.087Z,3.51
2023-03-17T16:19:29.891Z,3.57
2023-03-17T16:22:02.397Z,3.65
2023-03-17T16:24:32.718Z,3.73
2023-03-17T16:27:02.477Z,3.79
2023-03-17T16:29:43.062Z,3.88
2023-03-17T16:32:18.489Z,3.96
2023-03-17T16:34:48.149Z,4.06
2023-03-17T16:37:18.534Z,4.16
2023-03-17T16:39:59.236Z,4.27
2023-03-17T16:42:29.464Z,4.38
2023-03-17T16:45:03.594Z,4.49
2023-03-17T16:47:35.501Z,4.58
2023-03-17T16:50:25.669Z,4.68
2023-03-17T16:52:58.152Z,4.79
2023-03-17T16:55:31.166Z,4.88
2023-03-17T16:58:08.237Z,4.97
2023-03-17T17:00:50.404Z,5.05
2023-03-17T17:03:35.614Z,5.13
2023-03-17T17:07:05.712Z,5.22
2023-03-17T17:09:48.742Z,5.33
2023-03-17T17:12:57.313Z,5.40
2023-03-17T17:15:41.746Z,5.49
2023-03-17T17:18:38.934Z,5.55
2023-03-17T17:21:08.435Z,5.63
2023-03-17T17:23:36.851Z,5.69
2023-03-17T17:26:05.368Z,5.74
2023-03-17T17:28:37.252Z,5.81
2023-03-17T17:31:10.456Z,5.87
2023-03-17T17:33:48.645Z,5.92
2023-03-17T17:36:21.714Z,5.98
2023-03-17T17:38:50.691Z,6.04
2023-03-17T17:41:25.769Z,6.08
2023-03-17T17:43:55.378Z,6.12
2023-03-17T17:46:24.874Z,6.16
2023-03-17T17:48:53.690Z,6.20
2023-03-17T17:51:22.240Z,6.25
2023-03-17T17:53:54.692Z,6.29
2023-03-17T17:56:23.473Z,6.32
2023-03-17T17:58:58.880Z,6.36
2023-03-17T18:01:27.479Z,6.39
2023-03-17T18:03:59.397Z,6.41
2023-03-17T18:06:28.805Z,6.44
2023-03-17T18:09:21.080Z,6.48
2023-03-17T18:11:53.092Z,6.52
2023-03-17T18:14:22.092Z,6.56
2023-03-17T18:16:56.443Z,6.61
2023-03-17T18:20:04.570Z,6.64
2023-03-17T18:22:43.613Z,6.68
2023-03-17T18:25:23.577Z,6.71
2023-03-17T18:27:58.070Z,6.76
2023-03-17T18:30:30.194Z,6.80
2023-03-17T18:33:06.116Z,6.83
2023-03-17T18:35:35.701Z,6.86
2023-03-17T18:38:09.830Z,6.86
2023-03-17T18:40:38.795Z,6.86
2023-03-17T18:43:07.907Z,6.87
2023-03-17T18:45:50.803Z,6.88
2023-03-17T18:49:07.023Z,6.91
2023-03-17T18:51:45.087Z,6.97
2023-03-17T18:54:25.775Z,7.01
2023-03-17T18:57:01.134Z,7.05
2023-03-17T18:59:30.139Z,7.12
2023-03-17T19:02:30.140Z,7.16
2023-03-17T19:05:38.814Z,7.23
2023-03-17T19:08:16.338Z,7.31
2023-03-17T19:10:53.482Z,7.35
2023-03-17T19:13:46.200Z,7.40
2023-03-17T19:16:20.107Z,7.45
2023-03-17T19:18:59.792Z,7.47
2023-03-17T19:21:48.837Z,7.51
2023-03-17T19:24:17.458Z,7.57
2023-03-17T19:27:15.974Z,7.63
2023-03-17T19:29:45.107Z,7.70
2023-03-17T19:32:39.754Z,7.75
2023-03-17T19:35:15.785Z,7.84
2023-03-17T19:37:44.501Z,7.92
2023-03-17T19:40:27.013Z,7.99
2023-03-17T19:43:56.125Z,8.09
2023-03-17T19:46:24.963Z,8.22
2023-03-17T19:48:54.708Z,8.30
2023-03-17T19:51:43.849Z,8.38
2023-03-17T19:54:15.751Z,8.46
2023-03-17T19:56:44.788Z,8.52
2023-03-17T19:59:16.545Z,8.57
2023-03-17T20:02:08.887Z,8.65
2023-03-17T20:04:39.907Z,8.72
2023-03-17T20:07:18.619Z,8.76
2023-03-17T20:09:56.178Z,8.82
2023-03-17T20:12:38.487Z,8.91
2023-03-17T20:15:13.584Z,8.99
2023-03-17T20:17:45.007Z,9.07
2023-03-17T20:20:33.389Z,9.14
2023-03-17T20:23:02.332Z,9.19
2023-03-17T20:25:34.439Z,9.26
2023-03-17T20:28:12.157Z,9.35
2023-03-17T20:31:10.671Z,9.43
2023-03-17T20:33:48.703Z,9.53
2023-03-17T20:36:24.007Z,9.61
2023-03-17T20:38:58.585Z,9.69
2023-03-17T20:41:48.450Z,9.75
2023-03-17T20:44:52.855Z,9.80
2023-03-17T20:47:18.369Z,9.85
2023-03-17T20:50:07.639Z,9.89
2023-03-17T20:52:40.645Z,9.93
2023-03-17T20:55:21.353Z,9.95
2023-03-17T20:57:52.397Z,9.97
2023-03-17T21:00:47.857Z,10.00
2023-03-17T21:04:07.085Z,10.03
2023-03-17T21:06:40.620Z,10.06
2023-03-17T21:10:01.668Z,10.08
2023-03-17T21:12:34.838Z,10.13
2023-03-17T21:15:14.109Z,10.18
2023-03-17T21:17:50.047Z,10.26
2023-03-17T21:20:24.529Z,10.31
2023-03-17T21:22:53.828Z,10.35
2023-03-17T21:25:27.926Z,10.41
2023-03-17T21:28:12.394Z,10.47
2023-03-17T21:30:48.918Z,10.53
2023-03-17T21:33:17.896Z,10.61
2023-03-17T21:35:52.485Z,10.65
2023-03-17T21:38:32.323Z,10.69
2023-03-17T21:41:26.246Z,10.72
2023-03-17T21:44:05.481Z,10.74
2023-03-17T21:46:35.009Z,10.76
2023-03-17T21:49:07.411Z,10.78
2023-03-17T21:51:36.897Z,10.81
2023-03-17T21:54:37.550Z,10.83
2023-03-17T21:57:15.344Z,10.87
2023-03-17T21:59:55.346Z,10.89
2023-03-17T22:02:26.663Z,10.93
2023-03-17T22:05:07.650Z,10.97
2023-03-17T22:07:36.586Z,11.01
2023-03-17T22:10:11.777Z,11.06
2023-03-17T22:12:51.972Z,11.09
2023-03-17T22:15:32.624Z,11.13
2023-03-17T22:18:01.450Z,11.18
2023-03-17T22:21:09.797Z,11.22
2023-03-17T22:23:47.402Z,11.27
2023-03-17T22:26:19.247Z,11.31
2023-03-17T22:28:52.408Z,11.36
2023-03-17T22:31:27.902Z,11.40
2023-03-17T22:34:00.868Z,11.44
2023-03-17T22:36:40.178Z,11.48
2023-03-17T22:39:12.173Z,11.54
2023-03-17T22:41:41.289Z,11.61
2023-03-17T22:44:12.446Z,11.68
2023-03-17T22:46:42.106Z,11.78
2023-03-17T22:49:11.200Z,11.85
2023-03-17T22:51:49.216Z,11.92
2023-03-17T22:55:11.301Z,11.99
2023-03-17T22:58:00.688Z,12.07
2023-03-17T23:01:04.554Z,12.13
2023-03-17T23:04:01.244Z,12.17
2023-03-17T23:06:30.619Z,12.21
2023-03-17T23:09:11.571Z,12.24
2023-03-17T23:11:43.887Z,12.27
2023-03-17T23:14:12.582Z,12.29
2023-03-17T23:16:41.918Z,12.32
2023-03-17T23:19:13.669Z,12.35
2023-03-17T23:21:43.372Z,12.40
2023-03-17T23:24:12.719Z,12.44
2023-03-17T23:29:28.681Z,12.50
2023-03-17T23:31:58.693Z,12.54
2023-03-17T23:34:27.570Z,12.57
2023-03-17T23:37:05.614Z,12.60
2023-03-17T23:39:43.936Z,12.62
2023-03-17T23:42:12.852Z,12.65
2023-03-17T23:44:42.826Z,12.67
2023-03-17T23:47:11.600Z,12.70
2023-03-17T23:49:40.565Z,12.71
2023-03-17T23:52:09.996Z,12.72
2023-03-17T23:54:39.711Z,12.73
2023-03-17T23:57:17.121Z,12.73
2023-03-17T23:59:46.300Z,12.73
